createdAt,value
2023-01-27T00:01:17.602Z,3.36
2023-01-27T00:03:51.748Z,3.33
2023-01-27T00:06:24.636Z,3.22
2023-01-27T00:08:57.440Z,3.14
2023-01-27T00:11:47.647Z,3.07
2023-01-27T00:14:21.787Z,3.27
2023-01-27T00:16:54.581Z,3.23
2023-01-27T00:19:27.520Z,3.25
2023-01-27T00:22:18.001Z,3.25
2023-01-27T00:24:50.910Z,3.28
2023-01-27T00:27:23.973Z,3.27
2023-01-27T00:29:58.162Z,3.24
2023-01-27T00:32:51.159Z,3.17
2023-01-27T00:35:25.461Z,3.20
2023-01-27T00:37:58.869Z,3.23
2023-01-27T00:40:31.644Z,3.10
2023-01-27T00:43:05.252Z,3.23
2023-01-27T00:45:52.499Z,3.15
2023-01-27T00:48:25.272Z,3.18
2023-01-27T00:50:58.161Z,3.15
2023-01-27T00:53:31.599Z,3.15
2023-01-27T00:56:05.069Z,3.14
2023-01-27T00:58:38.439Z,3.18
2023-01-27T01:01:15.908Z,3.06
2023-01-27T01:03:49.037Z,3.13
2023-01-27T01:06:22.106Z,3.08
2023-01-27T01:08:57.948Z,3.14
2023-01-27T01:11:30.755Z,3.10
2023-01-27T01:14:03.579Z,3.03
2023-01-27T01:16:37.762Z,3.05
2023-01-27T01:19:10.551Z,3.02
2023-01-27T01:21:43.393Z,2.90
2023-01-27T01:24:16.261Z,2.97
2023-01-27T01:26:49.045Z,2.90
2023-01-27T01:29:21.861Z,2.93
2023-01-27T01:31:56.007Z,2.85
2023-01-27T01:34:28.964Z,2.82
2023-01-27T01:37:01.690Z,2.70
2023-01-27T01:39:34.598Z,2.77
2023-01-27T01:42:07.384Z,2.77
2023-01-27T01:44:45.025Z,2.76
2023-01-27T01:47:20.282Z,2.72
2023-01-27T01:49:53.178Z,2.70
2023-01-27T01:52:25.979Z,2.43
2023-01-27T01:54:58.846Z,2.58
2023-01-27T01:57:37.439Z,2.63
2023-01-27T02:00:12.358Z,2.66
2023-01-27T02:02:52.398Z,2.58
2023-01-27T02:05:29.071Z,2.55
2023-01-27T02:08:06.232Z,2.55
2023-01-27T02:10:39.198Z,2.58
2023-01-27T02:13:13.447Z,2.46
2023-01-27T02:15:46.841Z,2.53
2023-01-27T02:18:21.718Z,2.59
2023-01-27T02:20:55.640Z,2.54
2023-01-27T02:23:54.710Z,2.58
2023-01-27T02:26:34.453Z,2.55
2023-01-27T02:29:10.647Z,2.59
2023-01-27T02:31:44.048Z,2.51
2023-01-27T02:34:22.882Z,2.38
2023-01-27T02:36:58.418Z,2.50
2023-01-27T02:39:35.453Z,2.51
2023-01-27T02:42:13.262Z,2.39
2023-01-27T02:44:46.087Z,2.53
2023-01-27T02:47:19.586Z,2.59
2023-01-27T02:49:54.226Z,2.64
2023-01-27T02:52:28.083Z,2.58
2023-01-27T02:55:00.823Z,2.57
2023-01-27T02:57:34.998Z,2.61
2023-01-27T03:00:27.854Z,2.60
2023-01-27T03:03:00.686Z,2.53
2023-01-27T03:05:33.646Z,2.57
2023-01-27T03:08:06.582Z,2.58
2023-01-27T03:10:39.647Z,2.53
2023-01-27T03:13:13.792Z,2.58
2023-01-27T03:16:04.432Z,2.52
2023-01-27T03:18:37.566Z,2.52
2023-01-27T03:21:10.366Z,2.58
2023-01-27T03:23:45.592Z,2.49
2023-01-27T03:26:20.043Z,2.43
2023-01-27T03:29:12.439Z,2.53
2023-01-27T03:31:48.211Z,2.57
2023-01-27T03:34:25.165Z,2.59
2023-01-27T03:37:19.662Z,2.60
2023-01-27T03:40:09.804Z,2.57
2023-01-27T03:43:00.001Z,2.49
2023-01-27T03:45:51.666Z,2.57
2023-01-27T03:48:24.638Z,2.54
2023-01-27T03:50:58.620Z,2.50
2023-01-27T03:53:31.679Z,2.34
2023-01-27T03:56:05.791Z,2.54
2023-01-27T03:58:38.728Z,2.42
2023-01-27T04:01:17.472Z,2.54
2023-01-27T04:04:08.718Z,2.48
2023-01-27T04:07:00.760Z,2.50
2023-01-27T04:09:35.244Z,2.14
2023-01-27T04:12:07.818Z,2.37
2023-01-27T04:14:41.975Z,2.39
2023-01-27T04:17:18.134Z,2.53
2023-01-27T04:19:50.881Z,2.51
2023-01-27T04:22:23.619Z,2.50
2023-01-27T04:24:56.383Z,2.53
2023-01-27T04:27:29.118Z,2.53
2023-01-27T04:30:01.903Z,2.49
2023-01-27T04:32:36.347Z,2.55
2023-01-27T04:35:09.602Z,2.35
2023-01-27T04:37:42.533Z,2.57
2023-01-27T04:40:15.811Z,2.53
2023-01-27T04:42:48.804Z,2.57
2023-01-27T04:45:21.599Z,2.57
2023-01-27T04:47:55.715Z,2.31
2023-01-27T04:50:28.601Z,2.58
2023-01-27T04:53:01.544Z,2.58
2023-01-27T04:55:34.374Z,2.50
2023-01-27T04:58:07.175Z,2.45
2023-01-27T05:00:39.988Z,2.38
2023-01-27T05:03:14.212Z,2.61
2023-01-27T05:05:47.118Z,2.59
2023-01-27T05:08:20.010Z,2.59
2023-01-27T05:10:52.975Z,2.67
2023-01-27T05:13:25.749Z,2.71
2023-01-27T05:16:06.280Z,2.79
2023-01-27T05:18:41.910Z,2.64
2023-01-27T05:21:17.169Z,2.40
2023-01-27T05:23:50.664Z,2.75
2023-01-27T05:26:25.539Z,2.84
2023-01-27T05:28:59.311Z,2.82
2023-01-27T05:31:32.523Z,2.79
2023-01-27T05:34:06.945Z,2.78
2023-01-27T05:36:39.844Z,2.77
2023-01-27T05:39:12.826Z,2.68
2023-01-27T05:41:45.611Z,2.76
2023-01-27T05:44:18.329Z,2.73
2023-01-27T05:46:51.172Z,2.60
2023-01-27T05:49:25.318Z,2.50
2023-01-27T05:51:58.681Z,2.65
2023-01-27T05:54:31.497Z,2.69
2023-01-27T05:57:04.332Z,2.81
2023-01-27T05:59:37.075Z,2.78
2023-01-27T06:02:09.919Z,2.82
2023-01-27T06:04:44.228Z,2.80
2023-01-27T06:07:16.987Z,2.68
2023-01-27T06:09:50.332Z,2.66
2023-01-27T06:12:23.090Z,2.67
2023-01-27T06:14:57.933Z,2.82
2023-01-27T06:17:30.690Z,2.79
2023-01-27T06:20:05.663Z,2.94
2023-01-27T06:22:38.335Z,2.88
2023-01-27T06:25:13.539Z,2.89
2023-01-27T06:27:46.476Z,2.91
2023-01-27T06:30:19.451Z,2.90
2023-01-27T06:32:52.168Z,3.01
2023-01-27T06:35:26.304Z,2.91
2023-01-27T06:38:00.139Z,2.65
2023-01-27T06:40:34.113Z,2.96
2023-01-27T06:43:12.447Z,2.81
2023-01-27T06:45:45.204Z,2.90
2023-01-27T06:48:18.095Z,2.75
2023-01-27T06:50:53.273Z,2.88
2023-01-27T06:53:26.725Z,2.85
2023-01-27T06:56:01.340Z,2.94
2023-01-27T06:58:34.168Z,2.95
2023-01-27T07:01:07.609Z,3.03
2023-01-27T07:03:43.518Z,2.97
2023-01-27T07:06:20.197Z,2.95
2023-01-27T07:08:54.759Z,2.83
2023-01-27T07:11:28.405Z,2.93
2023-01-27T07:14:01.209Z,2.95
2023-01-27T07:16:34.034Z,2.92
2023-01-27T07:19:07.370Z,2.86
2023-01-27T07:21:41.613Z,2.88
2023-01-27T07:24:14.524Z,2.89
2023-01-27T07:26:48.351Z,2.87
2023-01-27T07:29:21.112Z,2.95
2023-01-27T07:31:54.173Z,2.99
2023-01-27T07:34:27.029Z,2.95
2023-01-27T07:37:01.598Z,2.93
2023-01-27T07:39:35.065Z,2.90
2023-01-27T07:42:08.270Z,3.03
2023-01-27T07:44:42.777Z,2.94
2023-01-27T07:47:15.631Z,3.04
2023-01-27T07:49:48.459Z,2.98
2023-01-27T07:52:22.595Z,3.04
2023-01-27T07:54:55.424Z,3.06
2023-01-27T07:57:28.288Z,3.05
2023-01-27T08:00:01.289Z,3.07
2023-01-27T08:02:34.024Z,3.05
2023-01-27T08:05:07.265Z,3.10
2023-01-27T08:07:41.473Z,3.17
2023-01-27T08:10:14.712Z,3.18
2023-01-27T08:12:48.731Z,3.09
2023-01-27T08:15:21.614Z,3.10
2023-01-27T08:17:55.531Z,3.03
2023-01-27T08:20:28.820Z,3.09
2023-01-27T08:23:02.972Z,3.09
2023-01-27T08:25:35.744Z,3.10
2023-01-27T08:28:08.493Z,3.04
2023-01-27T08:30:41.234Z,3.09
2023-01-27T08:33:14.558Z,3.00
2023-01-27T08:35:47.995Z,3.15
2023-01-27T08:38:22.306Z,3.14
2023-01-27T08:40:55.113Z,3.14
2023-01-27T08:43:27.921Z,3.23
2023-01-27T08:46:01.298Z,3.26
2023-01-27T08:48:35.424Z,3.28
2023-01-27T08:51:10.226Z,3.36
2023-01-27T08:53:44.328Z,3.34
2023-01-27T08:56:17.250Z,3.31
2023-01-27T08:58:52.173Z,3.20
2023-01-27T09:01:25.424Z,3.30
2023-01-27T09:03:58.296Z,3.43
2023-01-27T09:06:31.072Z,3.45
2023-01-27T09:09:12.124Z,3.51
2023-01-27T09:11:47.200Z,3.45
2023-01-27T09:14:20.950Z,3.58
2023-01-27T09:16:53.686Z,3.64
2023-01-27T09:19:26.605Z,3.64
2023-01-27T09:21:59.758Z,3.69
2023-01-27T09:24:33.906Z,3.74
2023-01-27T09:27:06.716Z,3.76
2023-01-27T09:29:39.509Z,3.76
2023-01-27T09:32:12.635Z,3.72
2023-01-27T09:34:45.522Z,3.81
2023-01-27T09:37:18.476Z,3.78
2023-01-27T09:39:59.312Z,3.81
2023-01-27T09:43:03.836Z,3.86
2023-01-27T09:45:49.367Z,3.87
2023-01-27T09:48:44.465Z,3.89
2023-01-27T09:51:23.396Z,3.90
2023-01-27T09:54:21.838Z,3.96
2023-01-27T09:57:05.376Z,3.96
2023-01-27T09:59:54.681Z,4.00
2023-01-27T10:03:02.891Z,3.97
2023-01-27T10:05:53.720Z,4.05
2023-01-27T10:08:46.154Z,4.07
2023-01-27T10:11:24.960Z,4.06
2023-01-27T10:14:14.117Z,4.10
2023-01-27T10:17:09.144Z,4.07
2023-01-27T10:19:55.509Z,4.02
2023-01-27T10:22:38.303Z,4.05
2023-01-27T10:25:25.554Z,4.05
2023-01-27T10:27:59.831Z,4.16
2023-01-27T10:30:36.267Z,4.28
2023-01-27T10:33:18.379Z,4.17
2023-01-27T10:35:54.056Z,4.25
2023-01-27T10:38:39.167Z,4.17
2023-01-27T10:41:28.185Z,4.29
2023-01-27T10:44:17.510Z,4.36
2023-01-27T10:46:59.371Z,4.34
2023-01-27T10:49:36.418Z,4.38
2023-01-27T10:52:12.606Z,4.40
2023-01-27T10:54:53.733Z,4.39
2023-01-27T10:57:34.358Z,4.38
2023-01-27T11:00:41.922Z,4.27
2023-01-27T11:03:17.820Z,4.28
2023-01-27T11:05:53.796Z,4.23
2023-01-27T11:08:30.552Z,4.29
2023-01-27T11:11:25.262Z,4.30
2023-01-27T11:14:04.538Z,4.34
2023-01-27T11:16:39.933Z,4.39
2023-01-27T11:19:24.758Z,4.39
2023-01-27T11:22:07.873Z,4.53
2023-01-27T11:24:46.980Z,4.62
2023-01-27T11:27:34.125Z,4.54
2023-01-27T11:30:16.849Z,4.55
2023-01-27T11:33:00.652Z,4.52
2023-01-27T11:35:34.899Z,4.49
2023-01-27T11:38:15.987Z,4.60
2023-01-27T11:40:51.632Z,4.53
2023-01-27T11:43:26.452Z,4.47
2023-01-27T11:46:03.616Z,4.61
2023-01-27T11:48:41.014Z,4.62
2023-01-27T11:51:21.431Z,4.65
2023-01-27T11:54:04.020Z,4.61
2023-01-27T11:56:38.830Z,4.73
2023-01-27T11:59:18.525Z,5.21
2023-01-27T12:01:56.695Z,5.35
2023-01-27T12:04:48.994Z,5.55
2023-01-27T12:07:33.055Z,5.50
2023-01-27T12:10:23.014Z,5.47
2023-01-27T12:12:56.925Z,5.42
2023-01-27T12:15:32.762Z,5.12
2023-01-27T12:18:14.660Z,4.95
2023-01-27T12:20:50.366Z,4.90
2023-01-27T12:23:28.186Z,4.83
2023-01-27T12:26:03.002Z,4.83
2023-01-27T12:28:38.629Z,4.76
2023-01-27T12:31:16.079Z,4.77
2023-01-27T12:33:59.367Z,4.72
2023-01-27T12:36:40.205Z,4.71
2023-01-27T12:39:28.977Z,4.63
2023-01-27T12:42:01.850Z,4.61
2023-01-27T12:44:42.784Z,4.62
2023-01-27T12:47:22.642Z,4.64
2023-01-27T12:50:20.778Z,4.51
2023-01-27T12:52:54.907Z,4.58
2023-01-27T12:55:35.059Z,4.52
2023-01-27T12:58:29.387Z,4.59
2023-01-27T13:01:05.408Z,4.57
2023-01-27T13:03:41.455Z,4.40
2023-01-27T13:06:17.023Z,4.40
2023-01-27T13:08:52.322Z,4.40
2023-01-27T13:11:37.169Z,4.40
2023-01-27T13:14:17.624Z,4.45
2023-01-27T13:16:54.428Z,4.38
2023-01-27T13:19:36.988Z,4.42
2023-01-27T13:22:17.523Z,4.41
2023-01-27T13:24:55.804Z,4.42
2023-01-27T13:27:39.863Z,4.39
2023-01-27T13:30:27.306Z,4.38
2023-01-27T13:33:06.983Z,4.50
2023-01-27T13:35:48.124Z,4.37
2023-01-27T13:38:26.248Z,4.39
2023-01-27T13:41:00.531Z,4.29
2023-01-27T13:43:40.374Z,4.30
2023-01-27T13:46:19.638Z,4.31
2023-01-27T13:48:55.771Z,4.39
2023-01-27T13:51:31.430Z,4.33
2023-01-27T13:54:05.741Z,4.44
2023-01-27T13:56:49.664Z,4.39
2023-01-27T13:59:36.874Z,4.30
2023-01-27T14:02:30.689Z,4.42
2023-01-27T14:05:26.345Z,4.40
2023-01-27T14:08:09.034Z,4.47
2023-01-27T14:10:47.568Z,4.51
2023-01-27T14:13:34.637Z,4.65
2023-01-27T14:16:14.269Z,4.57
2023-01-27T14:18:51.565Z,4.56
2023-01-27T14:21:41.776Z,4.49
2023-01-27T14:24:26.188Z,4.54
2023-01-27T14:27:06.005Z,4.49
2023-01-27T14:29:47.382Z,4.43
2023-01-27T14:32:32.067Z,4.40
2023-01-27T14:35:19.094Z,4.49
2023-01-27T14:37:59.905Z,4.51
2023-01-27T14:40:36.258Z,4.53
2023-01-27T14:43:19.433Z,4.48
2023-01-27T14:45:57.839Z,4.42
2023-01-27T14:48:43.299Z,4.49
2023-01-27T14:51:19.699Z,4.44
2023-01-27T14:54:10.026Z,4.43
2023-01-27T14:56:46.995Z,4.39
2023-01-27T14:59:34.869Z,4.37
2023-01-27T15:02:18.859Z,4.34
2023-01-27T15:04:59.397Z,4.25
2023-01-27T15:07:43.369Z,4.29
2023-01-27T15:10:24.697Z,4.17
2023-01-27T15:13:27.116Z,4.30
2023-01-27T15:16:26.301Z,4.21
2023-01-27T15:19:18.602Z,4.12
2023-01-27T15:22:24.586Z,4.12
2023-01-27T15:25:00.777Z,4.23
2023-01-27T15:27:34.406Z,4.19
2023-01-27T15:30:08.973Z,4.16
2023-01-27T15:32:41.875Z,4.02
2023-01-27T15:35:33.376Z,4.04
2023-01-27T15:38:29.628Z,4.01
2023-01-27T15:41:08.433Z,4.02
2023-01-27T15:44:02.613Z,3.94
2023-01-27T15:46:37.565Z,3.95
2023-01-27T15:49:15.533Z,3.96
2023-01-27T15:51:50.862Z,3.91
2023-01-27T15:54:26.933Z,3.92
2023-01-27T15:57:04.525Z,3.91
2023-01-27T15:59:58.354Z,3.81
2023-01-27T16:02:37.311Z,3.86
2023-01-27T16:05:18.345Z,3.80
2023-01-27T16:07:54.983Z,3.86
2023-01-27T16:10:34.536Z,3.84
2023-01-27T16:13:23.303Z,3.79
2023-01-27T16:16:31.581Z,3.77
2023-01-27T16:19:19.516Z,3.74
2023-01-27T16:21:58.110Z,3.72
2023-01-27T16:24:37.178Z,3.71
2023-01-27T16:27:23.419Z,3.68
2023-01-27T16:29:59.156Z,3.72
2023-01-27T16:32:38.992Z,3.61
2023-01-27T16:35:18.321Z,3.60
2023-01-27T16:38:03.873Z,3.67
2023-01-27T16:40:39.535Z,3.65
2023-01-27T16:43:18.204Z,3.58
2023-01-27T16:45:52.491Z,3.68
2023-01-27T16:48:32.475Z,3.58
2023-01-27T16:51:16.194Z,3.60
2023-01-27T16:53:51.022Z,3.68
2023-01-27T16:56:27.145Z,3.51
2023-01-27T16:59:03.810Z,3.60
2023-01-27T17:01:41.571Z,3.59
2023-01-27T17:04:20.439Z,3.51
2023-01-27T17:06:57.719Z,3.59
2023-01-27T17:09:32.735Z,3.53
2023-01-27T17:12:05.912Z,3.58
2023-01-27T17:14:47.598Z,3.57
2023-01-27T17:17:23.765Z,3.45
2023-01-27T17:20:02.631Z,3.46
2023-01-27T17:22:38.439Z,3.46
2023-01-27T17:25:16.417Z,3.38
2023-01-27T17:27:49.665Z,3.43
2023-01-27T17:30:26.112Z,3.43
2023-01-27T17:33:01.318Z,3.45
2023-01-27T17:35:36.820Z,3.44
2023-01-27T17:38:14.836Z,3.52
2023-01-27T17:40:49.324Z,3.51
2023-01-27T17:43:24.948Z,3.52
2023-01-27T17:46:15.686Z,3.55
2023-01-27T17:48:52.826Z,3.46
2023-01-27T17:51:27.939Z,3.51
2023-01-27T17:54:02.504Z,3.50
2023-01-27T17:56:36.400Z,3.48
2023-01-27T17:59:16.943Z,3.51
2023-01-27T18:01:54.982Z,3.50
2023-01-27T18:04:27.872Z,3.53
2023-01-27T18:07:00.957Z,3.48
2023-01-27T18:09:33.845Z,3.47
2023-01-27T18:12:07.356Z,3.40
2023-01-27T18:14:40.232Z,3.40
2023-01-27T18:17:23.885Z,3.43
2023-01-27T18:19:57.996Z,3.42
2023-01-27T18:22:31.019Z,3.40
2023-01-27T18:25:04.608Z,3.37
2023-01-27T18:27:38.984Z,3.37
2023-01-27T18:30:19.063Z,3.42
2023-01-27T18:33:00.590Z,3.41
2023-01-27T18:35:34.891Z,3.43
2023-01-27T18:38:26.485Z,3.35
2023-01-27T18:41:09.670Z,3.37
2023-01-27T18:43:42.930Z,3.38
2023-01-27T18:46:15.795Z,3.38
2023-01-27T18:48:50.093Z,3.33
2023-01-27T18:51:22.980Z,3.32
2023-01-27T18:53:55.818Z,3.36
2023-01-27T18:56:28.774Z,3.34
2023-01-27T18:59:01.780Z,3.29
2023-01-27T19:01:36.081Z,3.26
2023-01-27T19:04:12.864Z,3.26
2023-01-27T19:06:45.761Z,3.25
2023-01-27T19:09:18.713Z,3.30
2023-01-27T19:11:53.687Z,3.29
2023-01-27T19:14:26.386Z,3.31
2023-01-27T19:16:59.327Z,3.29
2023-01-27T19:19:33.565Z,3.27
2023-01-27T19:22:06.469Z,3.27
2023-01-27T19:24:39.871Z,3.29
2023-01-27T19:27:14.698Z,3.30
2023-01-27T19:29:48.072Z,3.22
2023-01-27T19:32:20.960Z,3.26
2023-01-27T19:34:55.108Z,3.20
2023-01-27T19:37:28.119Z,3.28
2023-01-27T19:40:02.125Z,3.28
2023-01-27T19:42:34.858Z,3.22
2023-01-27T19:45:09.966Z,3.26
2023-01-27T19:47:46.778Z,3.23
2023-01-27T19:50:23.566Z,3.20
2023-01-27T19:52:57.326Z,3.20
2023-01-27T19:55:30.145Z,3.13
2023-01-27T19:58:03.335Z,3.10
2023-01-27T20:00:37.918Z,2.95
2023-01-27T20:03:10.687Z,3.18
2023-01-27T20:05:44.980Z,3.20
2023-01-27T20:08:19.472Z,3.17
2023-01-27T20:10:52.533Z,3.08
2023-01-27T20:13:25.300Z,3.18
2023-01-27T20:15:58.613Z,3.15
2023-01-27T20:18:31.507Z,3.07
2023-01-27T20:21:05.698Z,3.07
2023-01-27T20:23:38.456Z,3.07
2023-01-27T20:26:13.729Z,3.05
2023-01-27T20:28:47.282Z,3.08
2023-01-27T20:31:23.045Z,3.00
2023-01-27T20:33:55.932Z,2.96
2023-01-27T20:36:30.050Z,2.93
2023-01-27T20:39:03.367Z,2.92
2023-01-27T20:41:36.267Z,2.93
2023-01-27T20:44:12.276Z,2.89
2023-01-27T20:46:45.008Z,2.93
2023-01-27T20:49:17.783Z,2.90
2023-01-27T20:51:51.909Z,2.86
2023-01-27T20:54:24.687Z,2.86
2023-01-27T20:56:58.035Z,2.74
2023-01-27T20:59:30.795Z,2.82
2023-01-27T21:02:04.499Z,2.79
2023-01-27T21:04:37.306Z,2.76
2023-01-27T21:07:12.473Z,2.73
2023-01-27T21:09:45.474Z,2.73
2023-01-27T21:12:18.415Z,2.71
2023-01-27T21:14:51.230Z,2.72
2023-01-27T21:17:24.096Z,2.58
2023-01-27T21:19:56.922Z,2.60
2023-01-27T21:22:31.059Z,2.58
2023-01-27T21:25:04.312Z,2.52
2023-01-27T21:27:37.099Z,2.54
2023-01-27T21:30:10.937Z,2.54
2023-01-27T21:32:43.720Z,2.51
2023-01-27T21:35:16.863Z,2.45
2023-01-27T21:37:51.176Z,2.35
2023-01-27T21:40:23.943Z,2.36
2023-01-27T21:43:16.684Z,2.25
2023-01-27T21:45:58.891Z,2.37
2023-01-27T21:48:31.683Z,2.38
2023-01-27T21:51:04.612Z,2.36
2023-01-27T21:53:38.727Z,2.35
2023-01-27T21:56:13.256Z,2.33
2023-01-27T21:58:46.100Z,2.21
2023-01-27T22:01:18.864Z,2.20
2023-01-27T22:03:51.682Z,2.23
2023-01-27T22:06:24.476Z,2.16
2023-01-27T22:08:58.702Z,2.15
2023-01-27T22:11:31.581Z,2.15
2023-01-27T22:14:04.342Z,2.14
2023-01-27T22:16:37.191Z,2.09
2023-01-27T22:19:10.103Z,2.09
2023-01-27T22:21:42.850Z,2.07
2023-01-27T22:24:17.092Z,2.03
2023-01-27T22:26:50.165Z,1.88
2023-01-27T22:29:22.919Z,1.93
2023-01-27T22:31:56.067Z,1.87
2023-01-27T22:34:28.852Z,1.86
2023-01-27T22:37:02.023Z,1.92
2023-01-27T22:39:37.835Z,1.83
2023-01-27T22:42:10.672Z,1.94
2023-01-27T22:44:43.805Z,1.73
2023-01-27T22:47:16.563Z,1.75
2023-01-27T22:49:49.329Z,1.74
2023-01-27T22:52:22.083Z,1.72
2023-01-27T22:54:56.327Z,1.65
2023-01-27T22:57:31.229Z,1.63
2023-01-27T23:00:04.020Z,1.72
2023-01-27T23:02:37.048Z,1.56
2023-01-27T23:05:10.158Z,1.74
2023-01-27T23:07:42.913Z,1.73
2023-01-27T23:10:18.213Z,1.69
2023-01-27T23:12:50.995Z,1.77
2023-01-27T23:15:23.897Z,1.74
2023-01-27T23:17:56.695Z,1.58
2023-01-27T23:20:29.501Z,1.71
2023-01-27T23:23:02.290Z,1.65
2023-01-27T23:25:37.487Z,1.55
2023-01-27T23:28:10.381Z,1.70
2023-01-27T23:30:44.530Z,1.67
2023-01-27T23:33:19.140Z,1.67
2023-01-27T23:35:57.476Z,1.80
2023-01-27T23:38:33.730Z,1.79
2023-01-27T23:41:12.488Z,1.85
2023-01-27T23:43:45.536Z,1.81
2023-01-27T23:46:18.540Z,1.77
2023-01-27T23:48:51.751Z,1.63
2023-01-27T23:51:24.671Z,1.69
2023-01-27T23:53:57.439Z,1.66
2023-01-27T23:56:31.540Z,1.63
2023-01-27T23:59:04.346Z,1.54
